Архив погоды на Мысе Терпения

Метеограмма Мыс Терпения
Среда, 24 Июля
Время местн. Темп Ветер Видим Явления Облачность нижн/средн/верх Атм. давл. Влжн Точка росы ВНГО R Сост. почвы Tg s
Напр Скр Прв ур.ст ур.м изм
07:00 +15.3° Ю,Ю-З 8 9 2 км дымка преимущественно облачно 753 754 +0.1 97% +14.9° 600 м 0 Сухая (без трещин) - -
04:00 +14.6° Ю,Ю-З 9 10 10 км - облачно с прояснениями 753 754 -0.3 97% +14.1° 1 км - - - -
01:00 +14.2° Ю,Ю-З 5 7 10 км - облачно с прояснениями 753 754 +0.2 97% +13.7° 1 км - - - -
Вторник, 23 Июля
Время местн. Темп Ветер Видим Явления Облачность нижн/средн/верх Атм. давл. Влжн Точка росы ВНГО R Сост. почвы Tg s
Напр Скр Прв ур.ст ур.м изм
22:00 +14.1° Ю 8 11 10 км - облачно с прояснениями 753 754 +0.2 97% +13.6° 600 м - - - -
19:00 +13.7° Ю 9 11 10 км - облачно с прояснениями 753 754 +0.1 92% +12.5° 600 м 0 - - -
16:00 +14° Ю 9 12 10 км - облачно с прояснениями 753 754 -0.7 91% +12.5° 1 км - - - -
13:00 +15.7° Ю 8 10 10 км - переменная облачность 754 754 -1 87% +13.6° - - - - -
10:00 +14.1° Ю 7 10 10 км - переменная облачность 755 755 -0.6 92% +12.8° - - - - -
07:00 +12.3° Ю 7 9 4 км дымка переменная облачность 755 756 -0.1 97% +11.8° более 2.5 км 0 Влажная (без луж) - -
04:00 +11.4° Ю 7 11 2 км дымка переменная облачность 755 756 -1.1 97% +11° более 2.5 км - - - -
01:00 +11° Ю 6 9 2 км дымка переменная облачность 757 757 -1.1 97% +10.6° более 2.5 км - - - -
Понедельник, 22 Июля
Время местн. Темп Ветер Видим Явления Облачность нижн/средн/верх Атм. давл. Влжн Точка росы ВНГО R Сост. почвы Tg s
Напр Скр Прв ур.ст ур.м изм
22:00 +10.2° Ю 6 9 2 км дымка переменная облачность 758 758 +0.1 98% +9.9° 1 км - - - -
19:00 +10.9° Ю 7 10 20 км - преимущественно облачно 758 758 -0.7 96% +10.3° 1 км 0 - - -
16:00 +14° Ю 6 8 20 км - переменная облачность 759 759 -0.7 90% +12.4° более 2.5 км - - - -
13:00 +14.8° Ю 6 8 20 км - облачно с прояснениями 759 760 -0.7 90% +13.2° 1 км - - - -
10:00 +13.8° Ю 7 9 10 км - облачно 760 761 -0.4 94% +12.8° 600 м - - - -
07:00 +12.7° Ю 8 9 4 км дымка облачно 760 761 -0.5 97% +12.2° 1 км 0 Влажная (без луж) +12° -
04:00 +12.5° Ю 8 9 2 км дымка облачно 761 761 -0.4 97% +12° 1 км - - - -
01:00 +12.4° Ю 6 8 2 км дымка облачно 761 762 -0.2 97% +11.9° 1 км - - - -
Воскресенье, 21 Июля
Время местн. Темп Ветер Видим Явления Облачность нижн/средн/верх Атм. давл. Влжн Точка росы ВНГО R Сост. почвы Tg s
Напр Скр Прв ур.ст ур.м изм
22:00 +12° Ю 7 9 2 км дымка облачно 761 762 -0.1 98% +11.7° 1 км - - - -
19:00 +11.4° Ю 9 11 4 км дымка преимущественно облачно 761 762 -0.3 97% +10.9° 1 км 0 - - -
16:00 +11.8° Ю 7 10 10 км - преимущественно облачно 762 762 -0.8 94% +10.9° 1 км - - - -
13:00 +14° Ю 7 10 4 км дымка облачно с прояснениями 763 763 -0.8 92% +12.7° 1 км - - - -
10:00 +11.6° Ю 8 9 1 км дымка {туман} облачно 763 764 +0.2 98% +11.3° 300 м - - - -
07:00 +10.9° Ю 8 11 500 м туман неба не видно 763 764 0 98% +10.6° - 0 Влажная (без луж) +11° -
04:00 +11° Ю 7 9 4 км туман неба не видно 763 764 +0.2 99% +10.8° - - - - -